Time;durP1;ratioP1;P1;durP2;ratioP2;P2;SDS_P1;SDS_P2;PMS_P1;PMS_P2;Temp;Humidity;BMP_temperature;BMP_pressure;BME280_temperature;BME280_humidity;BME280_pressure;Samples;Min_cycle;Max_cycle;Signal;HPM_P1;HPM_P2
2023/08/11 00:01:10;;;;;;;9.70;9.00;;;15.40;99.90;;;;;;5024917;28;20270;-75
2023/08/11 00:03:37;;;;;;;10.67;9.67;;;15.40;99.90;;;;;;5024818;28;20199;-75
2023/08/11 00:06:06;;;;;;;10.33;9.53;;;15.30;99.90;;;;;;5023535;28;20200;-75
2023/08/11 00:08:34;;;;;;;10.20;9.50;;;15.30;99.90;;;;;;5023145;28;20219;-75
2023/08/11 00:11:01;;;;;;;10.20;9.40;;;15.30;99.90;;;;;;5023040;28;21549;-76
2023/08/11 00:13:30;;;;;;;10.10;9.20;;;15.30;99.90;;;;;;5024340;28;20256;-76
2023/08/11 00:15:57;;;;;;;9.83;9.13;;;15.20;99.90;;;;;;5016326;28;20203;-76
2023/08/11 00:18:23;;;;;;;10.00;9.30;;;15.20;99.90;;;;;;5017776;28;20225;-75
2023/08/11 00:20:51;;;;;;;10.87;10.07;;;15.20;99.90;;;;;;5016699;28;20313;-76
2023/08/11 00:23:17;;;;;;;10.83;10.00;;;15.20;99.90;;;;;;5017121;28;20283;-76
2023/08/11 00:25:44;;;;;;;10.17;9.37;;;15.10;99.90;;;;;;5016688;28;20219;-76
2023/08/11 00:28:11;;;;;;;10.47;9.57;;;15.10;99.90;;;;;;5016044;28;20232;-76
2023/08/11 00:30:39;;;;;;;10.50;9.70;;;15.10;99.90;;;;;;5024069;28;20711;-76
2023/08/11 00:33:06;;;;;;;10.10;9.30;;;15.10;99.90;;;;;;5016161;28;20557;-76
2023/08/11 00:35:33;;;;;;;10.17;9.47;;;15.00;99.90;;;;;;5016027;28;20205;-75
2023/08/11 00:38:01;;;;;;;10.90;10.10;;;15.00;99.90;;;;;;5024813;28;20262;-76
2023/08/11 00:40:28;;;;;;;10.30;9.50;;;15.00;99.90;;;;;;5017503;28;20313;-75
2023/08/11 00:42:54;;;;;;;10.00;9.30;;;14.90;99.90;;;;;;5023790;28;20200;-76
2023/08/11 00:45:23;;;;;;;10.83;10.03;;;14.90;99.90;;;;;;5017751;28;20677;-75
2023/08/11 00:47:52;;;;;;;10.33;9.63;;;14.90;99.90;;;;;;5016049;28;20237;-76
2023/08/11 00:50:20;;;;;;;11.10;10.20;;;14.90;99.90;;;;;;5015863;28;20265;-76
2023/08/11 00:52:47;;;;;;;10.80;10.00;;;14.80;99.90;;;;;;5016509;28;20585;-76
2023/08/11 00:55:14;;;;;;;10.50;9.70;;;14.80;99.90;;;;;;5016388;28;20192;-75
2023/08/11 00:57:42;;;;;;;10.77;10.07;;;14.80;99.90;;;;;;5016707;28;20223;-76
2023/08/11 01:00:12;;;;;;;10.40;9.70;;;14.80;99.90;;;;;;5016037;28;20211;-76
2023/08/11 01:02:41;;;;;;;10.13;9.43;;;14.80;99.90;;;;;;5025313;28;20203;-76
2023/08/11 01:05:10;;;;;;;10.00;9.30;;;14.80;99.90;;;;;;5021649;28;20611;-76
2023/08/11 01:07:44;;;;;;;10.10;9.30;;;14.70;99.90;;;;;;5024435;28;20223;-76
2023/08/11 01:10:20;;;;;;;9.87;9.07;;;14.70;99.90;;;;;;5028147;28;20228;-76
2023/08/11 01:12:55;;;;;;;9.93;9.23;;;14.60;99.90;;;;;;5029661;28;20203;-76
2023/08/11 01:15:30;;;;;;;10.07;9.23;;;14.60;99.90;;;;;;5027651;28;20210;-76
2023/08/11 01:17:57;;;;;;;9.60;8.90;;;14.60;99.90;;;;;;5028566;28;20718;-76
2023/08/11 01:20:27;;;;;;;10.30;9.50;;;14.50;99.90;;;;;;5017643;28;20196;-75
2023/08/11 01:22:57;;;;;;;10.03;9.23;;;14.50;99.90;;;;;;5014616;28;20212;-76
2023/08/11 01:25:26;;;;;;;10.30;9.50;;;14.40;99.90;;;;;;5015122;28;20683;-76
2023/08/11 01:27:54;;;;;;;9.70;8.93;;;14.40;99.90;;;;;;5013846;28;20212;-76
2023/08/11 01:30:21;;;;;;;9.97;9.17;;;14.40;99.90;;;;;;5014273;28;20213;-75
2023/08/11 01:32:48;;;;;;;9.67;8.97;;;14.40;99.90;;;;;;5015963;28;20224;-76
2023/08/11 01:35:15;;;;;;;9.53;8.83;;;14.40;99.90;;;;;;5015749;28;20541;-76
2023/08/11 01:37:43;;;;;;;9.77;9.00;;;14.40;99.90;;;;;;5014097;28;20216;-76
2023/08/11 01:40:11;;;;;;;10.03;9.03;;;14.40;99.90;;;;;;5014422;28;20694;-76
2023/08/11 01:42:40;;;;;;;9.20;8.50;;;14.40;99.90;;;;;;5020882;28;20255;-76
2023/08/11 01:45:09;;;;;;;9.30;8.50;;;14.30;99.90;;;;;;5014714;28;20199;-76
2023/08/11 01:47:39;;;;;;;10.70;9.83;;;14.30;99.90;;;;;;5017571;28;20228;-76
2023/08/11 01:50:08;;;;;;;10.07;9.37;;;14.30;99.90;;;;;;5014941;28;20204;-75
2023/08/11 01:52:37;;;;;;;10.47;9.77;;;14.30;99.90;;;;;;5015037;28;20229;-75
2023/08/11 01:55:05;;;;;;;10.40;9.50;;;14.30;99.90;;;;;;5019398;28;20243;-76
2023/08/11 01:57:32;;;;;;;10.07;9.33;;;14.30;99.90;;;;;;5013810;28;20221;-75
2023/08/11 02:00:00;;;;;;;10.27;9.50;;;14.30;99.90;;;;;;5020617;28;20657;-76
2023/08/11 02:02:27;;;;;;;10.30;9.60;;;14.30;99.90;;;;;;5014392;28;20223;-76
2023/08/11 02:04:54;;;;;;;10.10;9.40;;;14.30;99.90;;;;;;5021948;28;20196;-76
2023/08/11 02:07:20;;;;;;;10.53;9.73;;;14.30;99.90;;;;;;5014290;28;20283;-76
2023/08/11 02:09:49;;;;;;;9.63;8.87;;;14.30;99.90;;;;;;5018047;28;20207;-75
2023/08/11 02:12:15;;;;;;;10.50;9.70;;;14.20;99.90;;;;;;5025789;28;20194;-76
2023/08/11 02:14:43;;;;;;;10.87;9.97;;;14.10;99.90;;;;;;4998276;28;20295;-76
2023/08/11 02:17:12;;;;;;;10.77;9.97;;;14.10;99.90;;;;;;5015312;28;20266;-76
2023/08/11 02:19:38;;;;;;;11.07;10.17;;;14.10;99.90;;;;;;5013970;28;20217;-76
2023/08/11 02:22:05;;;;;;;10.93;10.03;;;14.00;99.90;;;;;;5013959;28;20225;-76
2023/08/11 02:24:32;;;;;;;11.23;10.37;;;14.00;99.90;;;;;;5015395;28;20196;-76
2023/08/11 02:26:59;;;;;;;10.90;10.10;;;14.10;99.90;;;;;;5013417;28;20226;-76
2023/08/11 02:29:26;;;;;;;11.20;10.30;;;14.00;99.90;;;;;;5013785;28;20212;-76
2023/08/11 02:31:55;;;;;;;11.00;10.20;;;14.10;99.90;;;;;;5011005;28;20193;-76
2023/08/11 02:34:24;;;;;;;11.13;10.23;;;14.10;99.90;;;;;;5012477;28;20196;-76
2023/08/11 02:36:51;;;;;;;11.77;10.77;;;14.00;99.90;;;;;;5012269;28;20204;-76
2023/08/11 02:39:18;;;;;;;11.33;10.53;;;14.00;99.90;;;;;;5013235;28;20221;-76
2023/08/11 02:41:45;;;;;;;11.03;10.20;;;14.00;99.90;;;;;;5015984;28;20217;-76
2023/08/11 02:44:12;;;;;;;11.20;10.40;;;14.00;99.90;;;;;;5015068;28;20231;-76
2023/08/11 02:46:39;;;;;;;11.07;10.27;;;14.00;99.90;;;;;;5029467;28;20219;-76
2023/08/11 02:49:06;;;;;;;10.80;10.00;;;14.00;99.90;;;;;;5017246;28;20232;-76
2023/08/11 02:51:34;;;;;;;10.50;9.80;;;13.90;99.90;;;;;;5015658;28;20197;-76
2023/08/11 02:54:01;;;;;;;11.10;10.30;;;13.90;99.90;;;;;;5015445;28;20203;-76
2023/08/11 02:56:28;;;;;;;11.20;10.40;;;13.90;99.90;;;;;;5016321;28;20652;-75
2023/08/11 02:58:56;;;;;;;11.30;10.50;;;13.80;99.90;;;;;;5022400;28;20735;-76
2023/08/11 03:01:24;;;;;;;11.33;10.53;;;13.80;99.90;;;;;;5016018;28;20239;-76
2023/08/11 03:03:51;;;;;;;10.57;9.87;;;13.80;99.90;;;;;;5016277;28;20673;-75
2023/08/11 03:06:18;;;;;;;11.73;10.80;;;13.80;99.90;;;;;;5015413;28;20204;-76
2023/08/11 03:08:46;;;;;;;11.23;10.33;;;13.80;99.90;;;;;;5015646;28;20254;-76
2023/08/11 03:11:13;;;;;;;11.50;10.70;;;13.80;99.90;;;;;;5015006;28;20264;-76
2023/08/11 03:13:40;;;;;;;10.73;10.00;;;13.70;99.90;;;;;;5030048;28;20591;-76
2023/08/11 03:16:08;;;;;;;10.97;10.17;;;13.80;99.90;;;;;;5015035;28;20258;-76
2023/08/11 03:18:35;;;;;;;11.90;11.00;;;13.70;99.90;;;;;;5015246;28;20288;-76
2023/08/11 03:21:03;;;;;;;11.50;10.70;;;13.70;99.90;;;;;;5023439;28;20247;-79
2023/08/11 03:23:30;;;;;;;12.33;11.43;;;13.70;99.90;;;;;;5017848;28;20205;-79
2023/08/11 03:25:59;;;;;;;12.27;11.40;;;13.70;99.90;;;;;;5017286;28;20196;-78
2023/08/11 03:28:29;;;;;;;12.07;11.17;;;13.70;99.90;;;;;;5026942;28;20223;-78
2023/08/11 03:30:58;;;;;;;11.57;10.77;;;13.70;99.90;;;;;;5020968;28;20209;-78
2023/08/11 03:33:25;;;;;;;11.37;10.47;;;13.70;99.90;;;;;;5021721;28;20204;-78
2023/08/11 03:36:02;;;;;;;11.97;11.07;;;13.70;99.90;;;;;;5017277;28;20216;-79
2023/08/11 03:38:30;;;;;;;11.53;10.70;;;13.70;99.90;;;;;;5025768;28;20244;-78
2023/08/11 03:40:58;;;;;;;11.47;10.67;;;13.70;99.90;;;;;;5024753;28;20248;-78
2023/08/11 03:43:25;;;;;;;11.10;10.30;;;13.70;99.90;;;;;;5026115;28;20555;-79
2023/08/11 03:45:52;;;;;;;11.10;10.30;;;13.70;99.90;;;;;;5030512;28;20201;-78
2023/08/11 03:48:19;;;;;;;11.70;10.77;;;13.70;99.90;;;;;;5038044;23;20232;-82
2023/08/11 03:50:46;;;;;;;11.50;10.67;;;13.70;99.90;;;;;;5010372;28;20252;-80
2023/08/11 03:53:15;;;;;;;11.90;11.00;;;13.60;99.90;;;;;;5013111;28;20271;-82
2023/08/11 03:55:43;;;;;;;12.27;11.37;;;13.60;99.90;;;;;;5020101;28;20212;-83
2023/08/11 03:58:14;;;;;;;12.30;11.40;;;13.60;99.90;;;;;;5019312;28;20275;-82
2023/08/11 04:00:42;;;;;;;11.87;11.07;;;13.60;99.90;;;;;;4991888;28;20583;-82
2023/08/11 04:03:13;;;;;;;11.63;10.73;;;13.50;99.90;;;;;;4988329;28;20228;-84
2023/08/11 04:05:40;;;;;;;11.57;10.77;;;13.60;99.90;;;;;;4992871;28;20677;-82
2023/08/11 04:08:07;;;;;;;11.93;10.93;;;13.50;99.90;;;;;;4989107;28;20217;-81
2023/08/11 04:10:37;;;;;;;11.47;10.67;;;13.50;99.90;;;;;;4994004;28;20692;-82
2023/08/11 04:13:05;;;;;;;11.70;10.73;;;13.60;99.90;;;;;;4995299;28;20248;-79
2023/08/11 04:15:34;;;;;;;11.50;10.60;;;13.50;99.90;;;;;;4994286;28;20209;-82
2023/08/11 04:18:01;;;;;;;11.83;10.93;;;13.50;99.90;;;;;;4985957;28;20221;-82
2023/08/11 04:20:28;;;;;;;12.00;11.10;;;13.50;99.90;;;;;;4993858;28;20296;-82
2023/08/11 04:22:55;;;;;;;11.93;10.93;;;13.50;99.90;;;;;;4994520;28;20715;-83
2023/08/11 04:25:23;;;;;;;12.43;11.53;;;13.50;99.90;;;;;;4994060;28;20205;-82
2023/08/11 04:27:50;;;;;;;11.80;11.00;;;13.50;99.90;;;;;;4993037;28;20217;-82
2023/08/11 04:30:18;;;;;;;12.20;11.30;;;13.60;99.90;;;;;;4993215;28;20213;-82
2023/08/11 04:32:50;;;;;;;12.50;11.50;;;13.60;99.90;;;;;;4992388;28;20198;-83
2023/08/11 04:35:17;;;;;;;12.70;11.80;;;13.60;99.90;;;;;;4993282;28;20676;-81
2023/08/11 04:37:45;;;;;;;13.17;11.93;;;13.60;99.90;;;;;;4992401;28;20248;-80
2023/08/11 04:40:15;;;;;;;12.43;11.40;;;13.70;99.90;;;;;;4992837;28;20201;-81
2023/08/11 04:42:44;;;;;;;12.67;11.67;;;13.70;99.90;;;;;;4992093;28;20229;-82
2023/08/11 04:45:14;;;;;;;11.87;10.97;;;13.80;99.90;;;;;;4992925;28;20205;-82
2023/08/11 04:47:42;;;;;;;11.70;10.70;;;13.80;99.90;;;;;;4997008;28;20201;-82
2023/08/11 04:50:14;;;;;;;12.07;11.07;;;13.80;99.90;;;;;;4992533;28;20209;-81
2023/08/11 04:52:41;;;;;;;11.80;11.00;;;13.80;99.90;;;;;;4992632;28;20207;-81
2023/08/11 04:55:09;;;;;;;11.23;10.43;;;13.90;99.90;;;;;;4992175;28;20255;-82
2023/08/11 04:57:36;;;;;;;11.80;10.90;;;14.00;99.90;;;;;;4995670;28;20202;-81
2023/08/11 05:00:10;;;;;;;11.13;10.33;;;14.10;99.90;;;;;;4994571;28;20660;-81
2023/08/11 05:02:37;;;;;;;11.50;10.70;;;14.20;99.90;;;;;;4991662;28;20230;-81
2023/08/11 05:05:05;;;;;;;11.50;10.60;;;14.30;99.90;;;;;;4982643;28;20205;-81
2023/08/11 05:07:33;;;;;;;11.87;10.97;;;14.30;99.90;;;;;;4990915;28;20272;-83
2023/08/11 05:10:00;;;;;;;11.77;10.97;;;14.40;99.90;;;;;;4993417;28;20205;-81
2023/08/11 05:12:27;;;;;;;11.60;10.80;;;14.50;99.90;;;;;;4997643;28;20627;-83
2023/08/11 05:14:54;;;;;;;12.03;11.13;;;14.60;99.90;;;;;;5005703;28;20297;-84
2023/08/11 05:17:20;;;;;;;12.03;11.13;;;14.80;99.90;;;;;;5006589;28;20245;-83
2023/08/11 05:19:47;;;;;;;12.27;11.10;;;14.90;99.90;;;;;;4990900;28;20218;-83
2023/08/11 05:22:14;;;;;;;12.80;11.70;;;15.00;99.90;;;;;;4999940;28;20318;-83
2023/08/11 05:24:42;;;;;;;11.87;11.00;;;15.20;99.90;;;;;;4995088;28;20226;-82
2023/08/11 05:27:09;;;;;;;12.03;11.13;;;15.40;99.90;;;;;;4989942;28;20288;-85
2023/08/11 05:29:36;;;;;;;12.40;11.40;;;15.60;99.90;;;;;;4993793;28;20220;-85
2023/08/11 05:32:04;;;;;;;12.97;11.87;;;15.80;99.90;;;;;;5005082;28;20202;-85
2023/08/11 05:34:30;;;;;;;12.70;11.70;;;16.00;99.90;;;;;;4988447;28;20209;-84
2023/08/11 05:36:58;;;;;;;12.60;11.60;;;16.10;99.90;;;;;;5002464;28;20196;-87
2023/08/11 05:39:25;;;;;;;12.63;11.73;;;16.30;99.90;;;;;;4993720;28;20279;-85
2023/08/11 05:41:53;;;;;;;13.93;12.93;;;16.40;99.90;;;;;;4994186;28;20230;-85
2023/08/11 05:44:20;;;;;;;11.63;10.77;;;16.40;99.90;;;;;;4991910;28;20543;-84
2023/08/11 05:46:47;;;;;;;12.00;11.17;;;16.50;99.90;;;;;;4992040;28;20686;-84
2023/08/11 05:49:14;;;;;;;12.67;11.67;;;16.70;99.90;;;;;;4993334;28;20241;-84
2023/08/11 05:51:40;;;;;;;12.80;11.67;;;17.00;99.90;;;;;;4991442;28;20196;-81
2023/08/11 05:54:08;;;;;;;11.50;10.70;;;17.30;99.90;;;;;;4988337;28;20206;-84
2023/08/11 05:56:34;;;;;;;11.63;10.80;;;17.40;99.90;;;;;;5007919;28;20209;-85
2023/08/11 05:59:03;;;;;;;11.13;10.30;;;17.50;99.90;;;;;;5013032;28;20219;-84
2023/08/11 06:01:30;;;;;;;11.63;10.73;;;17.50;99.90;;;;;;4995356;28;20205;-82
2023/08/11 06:03:56;;;;;;;11.30;10.20;;;17.50;99.90;;;;;;4993732;28;20220;-85
2023/08/11 06:06:23;;;;;;;10.63;9.83;;;17.60;99.90;;;;;;4986705;28;20612;-83
2023/08/11 06:08:50;;;;;;;5.10;4.60;;;17.60;99.90;;;;;;4993075;28;20221;-82
2023/08/11 06:11:17;;;;;;;10.63;8.00;;;17.70;99.90;;;;;;5008811;28;20643;-80
2023/08/11 06:13:44;;;;;;;7.20;6.60;;;17.60;99.90;;;;;;4995842;28;20197;-83
2023/08/11 06:16:12;;;;;;;7.30;6.70;;;17.80;99.90;;;;;;4995290;28;20263;-83
2023/08/11 06:18:39;;;;;;;10.40;9.70;;;17.80;99.90;;;;;;4993103;28;20272;-82
2023/08/11 06:21:06;;;;;;;10.60;9.80;;;17.90;99.90;;;;;;4995850;28;20396;-84
2023/08/11 06:23:33;;;;;;;10.10;9.37;;;17.90;99.90;;;;;;4994390;28;20209;-83
2023/08/11 06:26:01;;;;;;;9.90;9.10;;;17.90;99.90;;;;;;4995727;28;20205;-83
2023/08/11 06:28:28;;;;;;;10.30;9.60;;;18.00;99.90;;;;;;4994804;28;20220;-84
2023/08/11 06:30:55;;;;;;;9.17;8.30;;;18.20;99.90;;;;;;4998122;28;20224;-84
2023/08/11 06:33:23;;;;;;;8.60;7.90;;;18.40;99.90;;;;;;4992908;28;20205;-81
2023/08/11 06:35:50;;;;;;;8.70;7.90;;;18.50;99.90;;;;;;4993835;28;20193;-84
2023/08/11 06:38:17;;;;;;;10.53;9.73;;;18.60;99.90;;;;;;4992556;28;20222;-82
2023/08/11 06:40:44;;;;;;;10.37;9.30;;;18.60;99.90;;;;;;4979076;28;20258;-82
2023/08/11 06:43:11;;;;;;;10.00;9.30;;;18.70;99.90;;;;;;4992105;28;20581;-82
2023/08/11 06:45:38;;;;;;;9.80;9.10;;;18.80;99.90;;;;;;4992203;28;20211;-82
2023/08/11 06:48:06;;;;;;;10.10;9.40;;;18.90;99.90;;;;;;4992190;28;20235;-82
2023/08/11 06:50:34;;;;;;;9.07;8.37;;;19.00;99.90;;;;;;4992362;28;20204;-82
2023/08/11 06:53:01;;;;;;;5.33;4.53;;;19.10;99.90;;;;;;4992079;28;20204;-82
2023/08/11 06:55:27;;;;;;;5.40;4.87;;;19.20;99.90;;;;;;4991672;28;20258;-83
2023/08/11 06:57:54;;;;;;;9.80;8.90;;;19.40;99.90;;;;;;4991483;28;20227;-82
2023/08/11 07:00:21;;;;;;;9.00;8.30;;;19.70;99.90;;;;;;4991647;28;20198;-82
2023/08/11 07:02:48;;;;;;;9.43;8.53;;;20.00;99.90;;;;;;4984836;28;20588;-82
2023/08/11 07:05:15;;;;;;;9.57;8.83;;;20.10;99.90;;;;;;4992413;28;20199;-82
2023/08/11 07:07:43;;;;;;;9.80;9.00;;;20.30;99.90;;;;;;5007534;28;20232;-85
2023/08/11 07:10:11;;;;;;;10.50;9.50;;;20.50;99.90;;;;;;5006261;28;20214;-83
2023/08/11 07:12:38;;;;;;;5.37;4.87;;;20.50;99.90;;;;;;4991281;28;20707;-84
2023/08/11 07:15:06;;;;;;;5.87;4.80;;;20.70;99.90;;;;;;4991396;28;20201;-84
2023/08/11 07:17:32;;;;;;;7.03;5.33;;;20.90;99.90;;;;;;4990834;28;20201;-86
2023/08/11 07:19:59;;;;;;;7.50;5.33;;;21.00;99.90;;;;;;4989176;28;20202;-85
2023/08/11 07:22:26;;;;;;;11.57;10.63;;;21.20;99.90;;;;;;4990379;28;20198;-84
2023/08/11 07:24:54;;;;;;;7.90;7.20;;;21.50;99.90;;;;;;4990316;28;20201;-84
2023/08/11 07:27:21;;;;;;;7.73;7.07;;;21.80;99.90;;;;;;4993513;28;20194;-85
2023/08/11 07:29:48;;;;;;;10.30;9.40;;;22.00;99.90;;;;;;4994438;28;20623;-84
2023/08/11 07:32:15;;;;;;;10.53;9.73;;;22.30;99.90;;;;;;5007558;28;20220;-82
2023/08/11 07:34:42;;;;;;;11.50;10.70;;;22.60;99.90;;;;;;4993737;28;20207;-82
2023/08/11 07:37:09;;;;;;;12.33;11.30;;;23.10;99.90;;;;;;4994990;28;20205;-82
2023/08/11 07:39:36;;;;;;;7.97;7.17;;;23.50;99.90;;;;;;4993892;28;20245;-82
2023/08/11 07:42:04;;;;;;;9.00;8.20;;;24.00;99.90;;;;;;5005460;28;20213;-83
2023/08/11 07:44:32;;;;;;;11.27;10.40;;;24.40;99.90;;;;;;4991239;28;20620;-82
2023/08/11 07:47:00;;;;;;;6.10;5.00;;;24.80;99.90;;;;;;4985462;28;20194;-82
2023/08/11 07:49:27;;;;;;;6.57;6.00;;;25.10;99.90;;;;;;4994576;28;20311;-82
2023/08/11 07:51:57;;;;;;;5.73;4.70;;;25.30;99.90;;;;;;4995530;28;20192;-80
2023/08/11 07:54:24;;;;;;;9.27;8.57;;;25.50;99.90;;;;;;4994004;28;20197;-83
2023/08/11 07:56:50;;;;;;;8.80;8.20;;;25.80;99.90;;;;;;4993043;28;20204;-82
2023/08/11 07:59:19;;;;;;;6.43;5.83;;;26.10;99.90;;;;;;4999605;28;20648;-83
2023/08/11 08:01:46;;;;;;;6.40;4.70;;;26.50;99.90;;;;;;4992913;28;20275;-83
2023/08/11 08:04:13;;;;;;;6.40;5.80;;;26.70;99.90;;;;;;5008283;28;20229;-82
2023/08/11 08:06:45;;;;;;;4.77;4.30;;;26.70;99.90;;;;;;5003945;28;20232;-85
2023/08/11 08:09:13;;;;;;;8.03;7.33;;;26.40;99.90;;;;;;4990954;28;20656;-83
2023/08/11 08:11:42;;;;;;;6.50;5.90;;;26.40;99.90;;;;;;4999328;28;20698;-82
2023/08/11 08:14:10;;;;;;;7.47;6.80;;;26.70;99.90;;;;;;4999340;28;20197;-82
2023/08/11 08:16:38;;;;;;;9.43;7.57;;;26.80;99.90;;;;;;4997798;28;20194;-85
2023/08/11 08:19:05;;;;;;;8.93;8.33;;;26.90;99.90;;;;;;5009268;28;20228;-86
2023/08/11 08:21:32;;;;;;;7.93;7.33;;;27.30;99.90;;;;;;4985769;28;20236;-85
2023/08/11 08:23:59;;;;;;;9.80;9.10;;;27.60;99.90;;;;;;4992719;28;20692;-83
2023/08/11 08:26:26;;;;;;;8.77;8.17;;;27.90;99.90;;;;;;4992375;28;20229;-81
2023/08/11 08:28:53;;;;;;;8.40;7.77;;;28.00;99.90;;;;;;5007664;28;20235;-79
2023/08/11 08:31:20;;;;;;;8.67;7.97;;;27.70;99.90;;;;;;4991629;28;20652;-81
2023/08/11 08:33:48;;;;;;;7.97;7.37;;;27.80;99.90;;;;;;4993496;28;20201;-82
2023/08/11 08:36:15;;;;;;;9.10;7.70;;;28.10;99.90;;;;;;4991498;28;20205;-82
2023/08/11 08:38:42;;;;;;;8.60;7.90;;;27.70;99.90;;;;;;4993460;28;20217;-82
2023/08/11 08:41:10;;;;;;;8.63;7.97;;;27.40;99.90;;;;;;5008334;28;20672;-82
2023/08/11 08:43:37;;;;;;;8.87;8.07;;;27.50;99.90;;;;;;4995460;28;20232;-82
2023/08/11 08:46:04;;;;;;;7.10;6.50;;;27.30;99.90;;;;;;5000712;28;20197;-82
2023/08/11 08:48:40;;;;;;;8.43;6.40;;;27.60;99.90;;;;;;4999140;28;20786;-82
2023/08/11 08:51:09;;;;;;;8.27;7.47;;;27.60;99.90;;;;;;4998289;28;20457;-83
2023/08/11 08:53:36;;;;;;;7.03;6.53;;;27.70;99.90;;;;;;5000002;28;20205;-83
2023/08/11 08:56:04;;;;;;;7.30;6.60;;;28.00;99.90;;;;;;4998970;28;20263;-82
2023/08/11 08:58:31;;;;;;;5.27;4.77;;;28.00;99.90;;;;;;4999423;28;20304;-82
2023/08/11 09:01:01;;;;;;;4.80;4.40;;;28.20;99.90;;;;;;4998317;28;20285;-83
2023/08/11 09:03:30;;;;;;;5.13;4.63;;;28.60;99.90;;;;;;4999454;28;20240;-82
2023/08/11 09:05:57;;;;;;;9.00;5.43;;;29.00;99.90;;;;;;4998791;28;20201;-82
2023/08/11 09:08:26;;;;;;;5.83;4.60;;;29.20;99.90;;;;;;4996488;28;20268;-82
2023/08/11 09:10:53;;;;;;;8.33;7.73;;;29.40;99.90;;;;;;4988206;28;20197;-82
2023/08/11 09:13:21;;;;;;;7.80;7.10;;;29.20;99.90;;;;;;4992106;28;20277;-79
2023/08/11 09:15:49;;;;;;;8.43;7.73;;;28.70;99.90;;;;;;5005361;28;20635;-79
2023/08/11 09:18:17;;;;;;;8.37;7.77;;;28.60;99.90;;;;;;4994822;28;20296;-79
2023/08/11 09:20:47;;;;;;;8.53;7.93;;;28.80;99.90;;;;;;4994842;28;20193;-80
2023/08/11 09:23:13;;;;;;;5.10;4.70;;;29.20;99.90;;;;;;4994024;28;20708;-80
2023/08/11 09:25:42;;;;;;;5.37;4.87;;;29.50;99.90;;;;;;4995616;28;20193;-80
2023/08/11 09:28:09;;;;;;;7.60;6.83;;;29.50;99.90;;;;;;4993502;28;20279;-79
2023/08/11 09:30:36;;;;;;;7.97;7.43;;;29.60;99.90;;;;;;4995780;28;20243;-80
2023/08/11 09:33:04;;;;;;;8.80;8.17;;;29.50;99.90;;;;;;4995324;28;20312;-79
2023/08/11 09:35:31;;;;;;;8.20;7.60;;;29.50;99.90;;;;;;5002541;28;20196;-79
2023/08/11 09:37:58;;;;;;;8.30;7.70;;;29.60;99.90;;;;;;4994140;28;20225;-79
2023/08/11 09:40:26;;;;;;;7.37;6.63;;;29.70;99.90;;;;;;4994074;28;20195;-79
2023/08/11 09:42:57;;;;;;;6.47;5.87;;;30.00;99.90;;;;;;4993010;28;20201;-79
2023/08/11 09:45:24;;;;;;;8.40;7.80;;;30.10;99.90;;;;;;4993955;28;20197;-79
2023/08/11 09:47:51;;;;;;;8.47;7.87;;;30.40;99.90;;;;;;4994022;28;20659;-80
2023/08/11 09:50:18;;;;;;;9.00;8.20;;;30.50;99.90;;;;;;5031036;22;20623;-76
2023/08/11 09:52:46;;;;;;;8.30;7.60;;;30.70;99.90;;;;;;5019554;28;20214;-76
2023/08/11 09:55:14;;;;;;;9.00;8.17;;;30.50;99.90;;;;;;5014110;28;20258;-76
2023/08/11 09:57:42;;;;;;;8.20;7.60;;;30.50;99.90;;;;;;5023861;28;20722;-76
2023/08/11 10:00:12;;;;;;;8.33;7.73;;;30.40;99.90;;;;;;5014296;28;20260;-75
2023/08/11 10:02:44;;;;;;;8.73;8.10;;;30.30;99.90;;;;;;5013421;28;20208;-76
2023/08/11 10:05:12;;;;;;;8.50;7.83;;;30.30;99.90;;;;;;5015102;28;20220;-76
2023/08/11 10:07:42;;;;;;;8.23;7.43;;;30.40;99.90;;;;;;5015127;28;20276;-75
2023/08/11 10:10:14;;;;;;;8.33;7.73;;;30.50;99.90;;;;;;5014578;28;20224;-75
2023/08/11 10:12:46;;;;;;;8.60;8.00;;;30.80;99.90;;;;;;5013854;28;20211;-75
2023/08/11 10:15:17;;;;;;;8.03;7.20;;;30.80;99.90;;;;;;5015700;28;20675;-75
2023/08/11 10:17:44;;;;;;;7.97;7.30;;;30.90;99.90;;;;;;5027369;28;20200;-75
2023/08/11 10:20:12;;;;;;;6.27;5.77;;;31.00;99.90;;;;;;5016871;28;20220;-75
2023/08/11 10:22:39;;;;;;;3.83;3.60;;;30.70;99.90;;;;;;5012808;28;20817;-74
2023/08/11 10:25:07;;;;;;;4.80;4.40;;;30.90;99.90;;;;;;5015553;28;20634;-75
2023/08/11 10:27:35;;;;;;;5.17;4.70;;;31.00;99.90;;;;;;5023390;28;20185;-75
2023/08/11 10:30:04;;;;;;;4.40;4.10;;;31.00;99.90;;;;;;5015138;28;20281;-76
2023/08/11 10:32:35;;;;;;;4.60;4.07;;;30.90;99.90;;;;;;5013604;28;20200;-75
2023/08/11 10:35:03;;;;;;;7.03;6.53;;;30.90;99.90;;;;;;5013990;28;20193;-75
2023/08/11 10:37:30;;;;;;;7.90;7.37;;;31.10;99.90;;;;;;5014356;28;20205;-75
2023/08/11 10:40:04;;;;;;;7.70;7.10;;;31.10;99.90;;;;;;5014334;28;20725;-75
2023/08/11 10:42:32;;;;;;;6.97;6.43;;;31.00;99.90;;;;;;5014240;28;20193;-75
2023/08/11 10:45:11;;;;;;;3.90;3.60;;;31.00;99.90;;;;;;5014441;28;20220;-75
2023/08/11 10:47:44;;;;;;;3.90;3.60;;;30.90;99.90;;;;;;5014487;28;20279;-75
2023/08/11 10:50:14;;;;;;;6.67;6.17;;;30.70;99.90;;;;;;5012150;28;20232;-75
2023/08/11 10:52:41;;;;;;;4.00;3.67;;;30.60;99.90;;;;;;5014080;28;20603;-75
2023/08/11 10:55:10;;;;;;;4.10;3.70;;;30.50;99.90;;;;;;5013398;28;20197;-75
2023/08/11 10:57:36;;;;;;;3.93;3.63;;;30.50;99.90;;;;;;5028661;28;20197;-75
2023/08/11 11:00:04;;;;;;;4.10;3.70;;;30.40;99.90;;;;;;5027898;28;20951;-75
2023/08/11 11:02:32;;;;;;;3.63;3.30;;;30.40;99.90;;;;;;5016455;28;20204;-75
2023/08/11 11:05:00;;;;;;;3.50;3.20;;;30.40;99.90;;;;;;5021889;28;20248;-75
2023/08/11 11:07:26;;;;;;;3.40;3.10;;;30.30;99.90;;;;;;5015473;28;20200;-75
2023/08/11 11:09:53;;;;;;;4.67;4.30;;;30.30;99.90;;;;;;5015247;28;20224;-75
2023/08/11 11:12:21;;;;;;;5.57;5.07;;;30.30;99.90;;;;;;5014804;28;20212;-75
2023/08/11 11:14:47;;;;;;;6.90;6.40;;;30.30;99.90;;;;;;5014557;28;20200;-75
2023/08/11 11:17:15;;;;;;;6.70;6.30;;;30.30;99.90;;;;;;5015843;28;20193;-72
2023/08/11 11:19:42;;;;;;;6.90;6.50;;;30.20;99.90;;;;;;5017761;28;20291;-83
2023/08/11 11:22:13;;;;;;;6.83;6.43;;;30.20;99.90;;;;;;5048152;28;20198;-76
2023/08/11 11:24:40;;;;;;;6.87;6.47;;;30.10;99.90;;;;;;5015332;28;20326;-79
2023/08/11 11:27:07;;;;;;;7.23;6.73;;;30.00;99.90;;;;;;5026498;28;20208;-77
2023/08/11 11:29:37;;;;;;;7.50;7.00;;;30.00;99.90;;;;;;5015876;28;20232;-79
2023/08/11 11:32:06;;;;;;;7.70;7.20;;;30.00;99.90;;;;;;5016520;28;20201;-75
2023/08/11 11:34:36;;;;;;;7.83;7.33;;;29.90;99.90;;;;;;5026634;28;20566;-75
2023/08/11 11:37:03;;;;;;;7.73;7.23;;;30.00;99.90;;;;;;5023515;28;20203;-75
2023/08/11 11:39:32;;;;;;;7.40;6.90;;;30.00;99.90;;;;;;5028386;28;20217;-75
2023/08/11 11:42:06;;;;;;;6.93;6.50;;;30.00;99.90;;;;;;5028229;28;20200;-75
2023/08/11 11:44:34;;;;;;;7.10;6.60;;;30.00;99.90;;;;;;5026786;28;20216;-75
2023/08/11 11:47:01;;;;;;;5.90;5.50;;;29.90;99.90;;;;;;5022504;28;20203;-75
2023/08/11 11:49:31;;;;;;;4.20;4.00;;;29.70;99.90;;;;;;5023153;28;20243;-75
2023/08/11 11:51:58;;;;;;;3.93;3.63;;;29.70;99.90;;;;;;5018494;28;20708;-75
2023/08/11 11:54:28;;;;;;;4.70;4.40;;;29.70;99.90;;;;;;5023543;28;20196;-75
2023/08/11 11:56:57;;;;;;;4.37;4.07;;;29.70;99.90;;;;;;5030610;28;20195;-78
2023/08/11 11:59:24;;;;;;;4.23;3.93;;;29.70;99.90;;;;;;5025478;28;20261;-76
2023/08/11 12:01:51;;;;;;;3.30;3.10;;;29.70;99.90;;;;;;5020951;28;20288;-76
2023/08/11 12:04:18;;;;;;;3.63;3.30;;;29.80;99.90;;;;;;5020300;28;20484;-76
2023/08/11 12:06:45;;;;;;;3.80;3.50;;;29.60;99.90;;;;;;5019370;28;20196;-77
2023/08/11 12:09:13;;;;;;;3.50;3.30;;;29.60;99.90;;;;;;5022605;28;20220;-76
2023/08/11 12:11:40;;;;;;;5.33;4.93;;;29.50;99.90;;;;;;5020070;28;20215;-76
2023/08/11 12:14:08;;;;;;;3.77;3.47;;;29.60;99.90;;;;;;5023961;28;20210;-77
2023/08/11 12:16:36;;;;;;;4.00;3.70;;;29.80;99.90;;;;;;5029457;28;20261;-78
2023/08/11 12:19:04;;;;;;;4.20;3.90;;;29.90;99.90;;;;;;5028062;28;20227;-77
2023/08/11 12:21:32;;;;;;;4.60;4.30;;;29.90;99.90;;;;;;5025249;28;20197;-77
2023/08/11 12:23:59;;;;;;;4.73;4.43;;;29.90;99.90;;;;;;5027224;28;20200;-76
2023/08/11 12:26:26;;;;;;;4.17;3.93;;;29.80;99.90;;;;;;5021335;28;20200;-76
2023/08/11 12:28:53;;;;;;;4.63;4.23;;;29.60;99.90;;;;;;5024553;28;20216;-76
2023/08/11 12:31:22;;;;;;;5.20;4.90;;;29.50;99.90;;;;;;5021299;28;20212;-76
2023/08/11 12:33:49;;;;;;;5.00;4.70;;;29.40;99.90;;;;;;5026378;28;20203;-76
2023/08/11 12:36:16;;;;;;;3.13;2.93;;;29.50;99.90;;;;;;5034712;28;20191;-76
2023/08/11 12:38:42;;;;;;;3.03;2.83;;;29.40;99.90;;;;;;5021726;28;20303;-76
2023/08/11 12:41:09;;;;;;;4.10;3.83;;;29.30;99.90;;;;;;5018902;28;20671;-76